Terminal Aerodrome Forecast
Issued by NWS Greer, SC

Home | Current Version | Previous Version | Text Only | Print | Product List | Glossary On
Versions: 1 2 3 4 5 6 7 8 9 10 11 12 13 14 15 16 17 18
000
FTUS42 KGSP 200524
TAFAVL
TAF
KAVL 200524Z 2006/2106 00000KT P6SM BKN120
     FM200800 00000KT 5SM BR SCT070
      TEMPO 2010/2013 3SM BR SCT003
     FM201300 VRB03KT P6SM SCT025
     FM201400 34004KT P6SM SCT080
     FM201600 34006KT P6SM SCT045 PROB30 2018/2021 4SM -TSRA
      BKN040CB
     FM210000 33004KT P6SM FEW250=

USA.gov is the U.S. government's official web portal to all federal, state and local government web resources and services.